createdAt,value
2023-04-26T00:01:06.079Z,99.90
2023-04-26T00:03:33.941Z,99.90
2023-04-26T00:06:08.994Z,99.90
2023-04-26T00:08:36.523Z,99.90
2023-04-26T00:11:03.800Z,99.90
2023-04-26T00:13:31.232Z,99.90
2023-04-26T00:15:58.408Z,99.90
2023-04-26T00:18:25.687Z,99.90
2023-04-26T00:20:52.836Z,99.90
2023-04-26T00:23:19.973Z,99.90
2023-04-26T00:25:47.210Z,99.90
2023-04-26T00:28:14.354Z,99.90
2023-04-26T00:30:47.549Z,99.90
2023-04-26T00:33:15.267Z,99.90
2023-04-26T00:35:42.533Z,99.90
2023-04-26T00:38:10.351Z,99.90
2023-04-26T00:40:37.893Z,99.90
2023-04-26T00:43:06.583Z,99.90
2023-04-26T00:45:34.726Z,99.90
2023-04-26T00:48:03.477Z,99.90
2023-04-26T00:50:32.901Z,99.90
2023-04-26T00:53:02.443Z,99.90
2023-04-26T00:55:30.071Z,99.90
2023-04-26T00:57:57.630Z,99.90
2023-04-26T01:00:25.733Z,99.90
2023-04-26T01:02:53.120Z,99.90
2023-04-26T01:05:20.615Z,99.90
2023-04-26T01:07:48.069Z,99.90
2023-04-26T01:10:15.345Z,99.90
2023-04-26T01:12:42.809Z,99.90
2023-04-26T01:15:11.218Z,99.90
2023-04-26T01:17:38.736Z,99.90
2023-04-26T01:20:08.852Z,99.90
2023-04-26T01:22:36.464Z,99.90
2023-04-26T01:25:07.702Z,99.90
2023-04-26T01:27:36.029Z,99.90
2023-04-26T01:30:04.732Z,99.90
2023-04-26T01:32:31.991Z,99.90
2023-04-26T01:35:00.463Z,99.90
2023-04-26T01:37:28.165Z,99.90
2023-04-26T01:39:55.707Z,99.90
2023-04-26T01:42:22.859Z,99.90
2023-04-26T01:44:50.790Z,99.90
2023-04-26T01:47:17.959Z,99.90
2023-04-26T01:49:46.184Z,99.90
2023-04-26T01:52:14.096Z,99.90
2023-04-26T01:54:41.240Z,99.90
2023-04-26T01:57:08.602Z,99.90
2023-04-26T01:59:35.853Z,99.90
2023-04-26T02:02:03.165Z,99.90
2023-04-26T02:04:30.562Z,99.90
2023-04-26T02:06:58.152Z,99.90
2023-04-26T02:09:25.454Z,99.90
2023-04-26T02:11:53.433Z,99.90
2023-04-26T02:14:20.626Z,99.90
2023-04-26T02:16:49.367Z,99.90
2023-04-26T02:19:17.194Z,99.90
2023-04-26T02:21:55.009Z,99.90
2023-04-26T02:24:23.682Z,99.90
2023-04-26T02:26:52.901Z,99.90
2023-04-26T02:29:29.415Z,99.90
2023-04-26T02:32:04.042Z,99.90
2023-04-26T02:34:31.795Z,99.90
2023-04-26T02:36:59.256Z,99.90
2023-04-26T02:39:26.592Z,99.90
2023-04-26T02:41:54.359Z,99.90
2023-04-26T02:44:21.649Z,99.90
2023-04-26T02:46:48.916Z,99.90
2023-04-26T02:49:16.488Z,99.90
2023-04-26T02:51:43.746Z,99.90
2023-04-26T02:54:11.058Z,99.90
2023-04-26T02:56:38.228Z,99.90
2023-04-26T02:59:05.773Z,99.90
2023-04-26T03:01:33.229Z,99.90
2023-04-26T03:04:00.586Z,99.90
2023-04-26T03:06:28.549Z,99.90
2023-04-26T03:08:55.791Z,99.90
2023-04-26T03:11:22.962Z,99.90
2023-04-26T03:13:50.235Z,99.90
2023-04-26T03:16:20.959Z,99.90
2023-04-26T03:18:48.225Z,99.90
2023-04-26T03:21:15.444Z,99.90
2023-04-26T03:23:43.082Z,99.90
2023-04-26T03:26:10.740Z,99.90
2023-04-26T03:28:38.985Z,99.90
2023-04-26T03:31:06.232Z,99.90
2023-04-26T03:33:33.504Z,99.90
2023-04-26T03:36:01.525Z,99.90
2023-04-26T03:38:28.799Z,99.90
2023-04-26T03:40:55.968Z,99.90
2023-04-26T03:43:23.890Z,99.90
2023-04-26T03:45:52.372Z,99.90
2023-04-26T03:48:19.674Z,99.90
2023-04-26T03:50:47.165Z,99.90
2023-04-26T03:53:14.311Z,99.90
2023-04-26T03:55:42.050Z,99.90
2023-04-26T03:58:09.667Z,99.90
2023-04-26T04:00:38.321Z,99.90
2023-04-26T04:03:07.383Z,99.90
2023-04-26T04:05:35.000Z,99.90
2023-04-26T04:08:02.947Z,99.90
2023-04-26T04:10:31.188Z,99.90
2023-04-26T04:12:58.409Z,99.90
2023-04-26T04:15:27.256Z,99.90
2023-04-26T04:17:55.506Z,99.90
2023-04-26T04:20:23.501Z,99.90
2023-04-26T04:22:52.794Z,99.90
2023-04-26T04:25:22.201Z,99.90
2023-04-26T04:27:50.218Z,99.90
2023-04-26T04:30:17.694Z,99.90
2023-04-26T04:32:46.941Z,99.90
2023-04-26T04:35:15.584Z,99.90
2023-04-26T04:37:44.063Z,99.90
2023-04-26T04:40:13.204Z,99.90
2023-04-26T04:42:44.489Z,99.90
2023-04-26T04:45:11.789Z,99.90
2023-04-26T04:47:40.160Z,99.90
2023-04-26T04:50:08.183Z,99.90
2023-04-26T04:52:35.404Z,99.90
2023-04-26T04:55:03.751Z,99.90
2023-04-26T04:57:32.375Z,99.90
2023-04-26T05:00:09.824Z,99.90
2023-04-26T05:02:42.393Z,99.90
2023-04-26T05:05:10.983Z,99.90
2023-04-26T05:07:38.716Z,99.90
2023-04-26T05:10:06.920Z,99.90
2023-04-26T05:12:35.283Z,99.90
2023-04-26T05:15:02.633Z,99.90
2023-04-26T05:17:35.277Z,99.90
2023-04-26T05:20:13.277Z,99.90
2023-04-26T05:22:41.309Z,99.90
2023-04-26T05:25:10.511Z,99.90
2023-04-26T05:27:38.412Z,99.90
2023-04-26T05:30:16.424Z,99.90
2023-04-26T05:32:50.424Z,99.90
2023-04-26T05:35:33.341Z,99.90
2023-04-26T05:38:00.797Z,99.90
2023-04-26T05:40:28.094Z,99.90
2023-04-26T05:42:55.701Z,99.90
2023-04-26T05:45:22.919Z,99.90
2023-04-26T05:47:51.629Z,99.90
2023-04-26T05:50:19.380Z,99.90
2023-04-26T05:52:46.564Z,99.90
2023-04-26T05:55:14.225Z,99.90
2023-04-26T05:57:41.974Z,99.90
2023-04-26T06:00:09.795Z,99.90
2023-04-26T06:02:46.133Z,99.90
2023-04-26T06:05:18.466Z,99.90
2023-04-26T06:07:46.355Z,99.90
2023-04-26T06:10:13.874Z,99.90
2023-04-26T06:12:41.697Z,99.90
2023-04-26T06:15:10.185Z,99.90
2023-04-26T06:17:40.345Z,99.90
2023-04-26T06:20:11.630Z,99.90
2023-04-26T06:22:38.852Z,99.90
2023-04-26T06:25:08.367Z,99.90
2023-04-26T06:27:39.086Z,99.90
2023-04-26T06:30:07.833Z,99.90
2023-04-26T06:32:40.500Z,99.90
2023-04-26T06:35:08.115Z,99.90
2023-04-26T06:37:35.564Z,99.90
2023-04-26T06:40:03.637Z,99.90
2023-04-26T06:42:33.919Z,99.90
2023-04-26T06:45:21.683Z,99.90
2023-04-26T06:47:53.078Z,99.90
2023-04-26T06:50:26.132Z,99.90
2023-04-26T06:53:12.388Z,97.60
2023-04-26T06:55:41.978Z,99.80
2023-04-26T06:58:09.415Z,99.90
2023-04-26T07:00:39.108Z,99.90
2023-04-26T07:03:08.127Z,99.90
2023-04-26T07:05:35.815Z,99.90
2023-04-26T07:08:03.179Z,99.90
2023-04-26T07:10:30.866Z,99.90
2023-04-26T07:12:58.208Z,99.90
2023-04-26T07:15:25.468Z,99.90
2023-04-26T07:17:52.728Z,99.90
2023-04-26T07:20:22.047Z,99.90
2023-04-26T07:22:49.416Z,99.90
2023-04-26T07:25:17.382Z,99.70
2023-04-26T07:27:44.647Z,94.60
2023-04-26T07:30:12.490Z,91.40
2023-04-26T07:32:42.170Z,88.40
2023-04-26T07:35:15.789Z,84.00
2023-04-26T07:37:44.328Z,81.80
2023-04-26T07:40:13.662Z,81.50
2023-04-26T07:42:42.866Z,78.60
2023-04-26T07:45:12.118Z,76.40
2023-04-26T07:47:39.658Z,74.30
2023-04-26T07:50:10.708Z,77.00
2023-04-26T07:52:39.957Z,72.40
2023-04-26T07:55:09.427Z,78.00
2023-04-26T07:57:38.279Z,73.70
2023-04-26T08:00:09.684Z,72.50
2023-04-26T08:02:45.087Z,74.60
2023-04-26T08:05:16.777Z,74.40
2023-04-26T08:07:44.221Z,76.00
2023-04-26T08:10:12.252Z,73.30
2023-04-26T08:12:40.563Z,73.30
2023-04-26T08:15:08.329Z,73.20
2023-04-26T08:17:35.808Z,75.10
2023-04-26T08:20:05.909Z,77.60
2023-04-26T08:22:33.414Z,76.00
2023-04-26T08:25:00.685Z,78.80
2023-04-26T08:27:33.198Z,80.10
2023-04-26T08:30:20.295Z,79.40
2023-04-26T08:32:47.583Z,81.20
2023-04-26T08:35:15.057Z,81.40
2023-04-26T08:37:42.508Z,80.70
2023-04-26T08:40:11.080Z,81.00
2023-04-26T08:42:42.610Z,81.10
2023-04-26T08:45:13.654Z,85.90
2023-04-26T08:47:48.775Z,80.20
2023-04-26T08:50:19.909Z,73.60
2023-04-26T08:52:50.859Z,72.60
2023-04-26T08:55:22.459Z,68.90
2023-04-26T08:57:51.082Z,67.50
2023-04-26T09:00:19.841Z,64.20
2023-04-26T09:02:51.037Z,63.60
2023-04-26T09:05:23.881Z,61.00
2023-04-26T09:07:51.330Z,60.20
2023-04-26T09:10:21.384Z,56.50
2023-04-26T09:12:53.431Z,59.30
2023-04-26T09:15:22.700Z,58.90
2023-04-26T09:17:51.552Z,57.70
2023-04-26T09:20:21.780Z,57.60
2023-04-26T09:22:52.627Z,56.60
2023-04-26T09:25:30.329Z,54.70
2023-04-26T09:27:58.505Z,54.30
2023-04-26T09:30:26.863Z,50.40
2023-04-26T09:32:57.580Z,54.00
2023-04-26T09:35:32.803Z,53.30
2023-04-26T09:38:12.629Z,55.30
2023-04-26T09:40:46.155Z,56.10
2023-04-26T09:43:15.647Z,58.00
2023-04-26T09:45:47.442Z,59.60
2023-04-26T09:48:28.736Z,64.90
2023-04-26T09:50:58.928Z,71.20
2023-04-26T09:53:38.299Z,76.90
2023-04-26T09:56:19.577Z,85.70
2023-04-26T09:58:47.661Z,97.90
2023-04-26T10:01:20.341Z,99.90
2023-04-26T10:03:48.406Z,99.90
2023-04-26T10:06:16.586Z,99.90
2023-04-26T10:08:45.380Z,99.90
2023-04-26T10:11:12.996Z,99.90
2023-04-26T10:13:41.999Z,99.90
2023-04-26T10:16:09.963Z,99.90
2023-04-26T10:18:37.668Z,99.90
2023-04-26T10:21:13.778Z,99.90
2023-04-26T10:23:41.645Z,99.90
2023-04-26T10:26:51.933Z,99.90
2023-04-26T10:29:26.941Z,99.90
2023-04-26T10:32:16.436Z,99.90
2023-04-26T10:34:44.145Z,99.90
2023-04-26T10:37:16.050Z,99.90
2023-04-26T10:39:44.684Z,99.90
2023-04-26T10:42:30.213Z,99.90
2023-04-26T10:45:20.679Z,99.90
2023-04-26T10:47:47.894Z,99.90
2023-04-26T10:50:15.290Z,99.90
2023-04-26T10:53:01.890Z,99.90
2023-04-26T10:55:55.367Z,99.90
2023-04-26T10:58:30.284Z,99.90
2023-04-26T11:01:05.284Z,99.90
2023-04-26T11:03:33.532Z,99.90
2023-04-26T11:06:07.081Z,99.90
2023-04-26T11:08:36.406Z,99.90
2023-04-26T11:11:03.571Z,99.90
2023-04-26T11:13:44.012Z,99.90
2023-04-26T11:16:15.470Z,99.90
2023-04-26T11:18:44.689Z,99.90
2023-04-26T11:21:15.151Z,99.90
2023-04-26T11:23:42.309Z,98.00
2023-04-26T11:26:09.636Z,91.60
2023-04-26T11:28:38.477Z,86.50
2023-04-26T11:31:07.321Z,86.40
2023-04-26T11:33:34.587Z,93.90
2023-04-26T11:36:02.202Z,93.50
2023-04-26T11:38:29.577Z,93.00
2023-04-26T11:40:58.637Z,93.30
2023-04-26T11:43:39.623Z,95.20
2023-04-26T11:46:08.430Z,94.80
2023-04-26T11:48:37.385Z,95.10
2023-04-26T11:51:07.181Z,92.80
2023-04-26T11:53:43.189Z,89.80
2023-04-26T11:56:15.715Z,87.80
2023-04-26T11:58:53.627Z,79.40
2023-04-26T12:01:28.881Z,75.80
2023-04-26T12:03:58.647Z,75.10
2023-04-26T12:06:30.692Z,71.80
2023-04-26T12:08:58.004Z,60.80
2023-04-26T12:11:27.004Z,64.20
2023-04-26T12:13:57.423Z,60.30
2023-04-26T12:16:26.841Z,55.70
2023-04-26T12:18:59.013Z,56.20
2023-04-26T12:21:30.318Z,54.80
2023-04-26T12:23:58.135Z,54.70
2023-04-26T12:26:47.008Z,51.20
2023-04-26T12:29:14.371Z,55.10
2023-04-26T12:31:42.426Z,51.80
2023-04-26T12:34:09.842Z,53.10
2023-04-26T12:36:37.114Z,51.70
2023-04-26T12:39:05.271Z,54.80
2023-04-26T12:41:32.814Z,54.50
2023-04-26T12:44:00.550Z,55.50
2023-04-26T12:46:27.930Z,54.20
2023-04-26T12:48:55.376Z,52.70
2023-04-26T12:51:22.573Z,55.10
2023-04-26T12:53:50.780Z,54.80
2023-04-26T12:56:29.701Z,54.70
2023-04-26T12:58:59.516Z,53.60
2023-04-26T13:01:29.276Z,51.90
2023-04-26T13:03:59.723Z,49.00
2023-04-26T13:06:29.881Z,48.80
2023-04-26T13:08:57.138Z,48.30
2023-04-26T13:11:24.414Z,46.60
2023-04-26T13:13:52.724Z,45.30
2023-04-26T13:16:20.373Z,46.20
2023-04-26T13:18:48.841Z,46.70
2023-04-26T13:21:16.613Z,46.80
2023-04-26T13:23:46.726Z,50.10
2023-04-26T13:26:15.205Z,52.50
2023-04-26T13:28:42.771Z,48.40
2023-04-26T13:31:10.403Z,45.00
2023-04-26T13:33:37.857Z,46.20
2023-04-26T13:36:05.381Z,47.60
2023-04-26T13:38:33.068Z,50.70
2023-04-26T13:41:26.398Z,55.60
2023-04-26T13:43:53.720Z,58.80
2023-04-26T13:46:22.416Z,56.40
2023-04-26T13:48:50.320Z,53.30
2023-04-26T13:51:19.898Z,51.30
2023-04-26T13:53:47.981Z,50.10
2023-04-26T13:56:15.425Z,52.00
2023-04-26T13:58:43.387Z,52.70
2023-04-26T14:01:11.081Z,49.40
2023-04-26T14:03:41.595Z,49.40
2023-04-26T14:06:12.850Z,47.00
2023-04-26T14:08:41.467Z,46.60
2023-04-26T14:11:08.941Z,46.30
2023-04-26T14:13:36.583Z,45.30
2023-04-26T14:16:04.247Z,45.40
2023-04-26T14:18:33.230Z,47.30
2023-04-26T14:21:01.364Z,50.70
2023-04-26T14:23:28.751Z,50.40
2023-04-26T14:25:56.411Z,48.10
2023-04-26T14:28:26.151Z,48.40
2023-04-26T14:30:54.707Z,50.40
2023-04-26T14:33:25.150Z,52.50
2023-04-26T14:35:52.702Z,54.40
2023-04-26T14:38:24.377Z,55.80
2023-04-26T14:40:51.929Z,53.70
2023-04-26T14:43:19.866Z,51.20
2023-04-26T14:45:48.270Z,49.10
2023-04-26T14:48:16.070Z,50.60
2023-04-26T14:50:45.593Z,51.50
2023-04-26T14:53:14.443Z,53.10
2023-04-26T14:55:42.504Z,51.70
2023-04-26T14:58:10.737Z,50.80
2023-04-26T15:00:39.026Z,49.70
2023-04-26T15:03:07.995Z,53.20
2023-04-26T15:05:37.993Z,54.40
2023-04-26T15:08:07.286Z,54.30
2023-04-26T15:10:36.647Z,53.40
2023-04-26T15:13:05.301Z,51.70
2023-04-26T15:15:34.713Z,53.20
2023-04-26T15:18:03.982Z,54.40
2023-04-26T15:20:31.646Z,55.30
2023-04-26T15:23:03.725Z,57.20
2023-04-26T15:25:35.785Z,59.60
2023-04-26T15:28:06.265Z,60.30
2023-04-26T15:30:35.319Z,61.50
2023-04-26T15:33:03.085Z,63.80
2023-04-26T15:35:30.510Z,64.30
2023-04-26T15:37:59.001Z,63.10
2023-04-26T15:40:27.727Z,62.10
2023-04-26T15:42:55.848Z,62.40
2023-04-26T15:45:32.366Z,62.20
2023-04-26T15:47:59.967Z,58.90
2023-04-26T15:50:27.422Z,59.80
2023-04-26T15:52:55.004Z,60.00
2023-04-26T15:55:22.351Z,61.00
2023-04-26T15:57:50.956Z,61.20
2023-04-26T16:00:18.656Z,62.20
2023-04-26T16:02:46.778Z,62.60
2023-04-26T16:05:16.047Z,62.50
2023-04-26T16:07:47.053Z,62.70
2023-04-26T16:10:15.000Z,62.90
2023-04-26T16:12:45.037Z,60.30
2023-04-26T16:15:16.515Z,60.30
2023-04-26T16:17:44.328Z,59.60
2023-04-26T16:20:12.933Z,60.70
2023-04-26T16:22:40.508Z,61.10
2023-04-26T16:25:08.934Z,62.20
2023-04-26T16:27:38.279Z,62.30
2023-04-26T16:30:07.424Z,63.80
2023-04-26T16:32:37.160Z,64.90
2023-04-26T16:35:08.026Z,63.60
2023-04-26T16:37:44.438Z,63.80
2023-04-26T16:40:13.686Z,63.70
2023-04-26T16:42:43.325Z,63.40
2023-04-26T16:45:16.569Z,62.90
2023-04-26T16:47:44.761Z,63.30
2023-04-26T16:50:12.729Z,62.00
2023-04-26T16:52:46.078Z,60.80
2023-04-26T16:55:13.694Z,60.30
2023-04-26T16:57:42.229Z,60.90
2023-04-26T17:00:12.019Z,60.60
2023-04-26T17:02:41.305Z,62.20
2023-04-26T17:05:13.464Z,62.40
2023-04-26T17:07:44.877Z,63.30
2023-04-26T17:10:13.829Z,64.40
2023-04-26T17:12:41.973Z,66.20
2023-04-26T17:15:11.305Z,67.10
2023-04-26T17:17:45.367Z,67.50
2023-04-26T17:20:14.942Z,67.90
2023-04-26T17:22:42.357Z,68.60
2023-04-26T17:25:10.472Z,68.80
2023-04-26T17:27:38.278Z,69.60
2023-04-26T17:30:09.737Z,70.10
2023-04-26T17:32:38.058Z,70.40
2023-04-26T17:35:08.325Z,70.00
2023-04-26T17:37:35.798Z,70.60
2023-04-26T17:40:05.789Z,71.50
2023-04-26T17:42:35.974Z,71.50
2023-04-26T17:45:05.508Z,71.90
2023-04-26T17:47:41.302Z,72.50
2023-04-26T17:50:09.741Z,73.10
2023-04-26T17:52:38.908Z,74.00
2023-04-26T17:55:10.072Z,74.10
2023-04-26T17:57:37.827Z,74.10
2023-04-26T18:00:13.085Z,74.50
2023-04-26T18:02:44.047Z,75.30
2023-04-26T18:05:14.424Z,75.20
2023-04-26T18:07:43.113Z,74.20
2023-04-26T18:10:13.372Z,73.70
2023-04-26T18:12:41.787Z,74.80
2023-04-26T18:15:27.126Z,74.90
2023-04-26T18:18:09.281Z,75.90
2023-04-26T18:20:37.260Z,76.60
2023-04-26T18:23:07.333Z,77.10
2023-04-26T18:25:37.738Z,78.30
2023-04-26T18:28:07.119Z,78.50
2023-04-26T18:30:36.441Z,78.90
2023-04-26T18:33:07.207Z,79.90
2023-04-26T18:35:36.892Z,80.70
2023-04-26T18:38:05.306Z,81.40
2023-04-26T18:40:33.959Z,82.50
2023-04-26T18:43:01.539Z,83.20
2023-04-26T18:45:29.415Z,84.60
2023-04-26T18:47:57.079Z,86.60
2023-04-26T18:50:24.730Z,88.70
2023-04-26T18:52:52.881Z,90.00
2023-04-26T18:55:20.374Z,91.00
2023-04-26T18:57:47.748Z,92.00
2023-04-26T19:00:16.075Z,92.90
2023-04-26T19:02:43.621Z,93.50
2023-04-26T19:05:13.069Z,94.60
2023-04-26T19:07:41.616Z,95.60
2023-04-26T19:10:10.022Z,96.30
2023-04-26T19:12:37.446Z,96.80
2023-04-26T19:15:05.881Z,97.90
2023-04-26T19:17:33.358Z,98.80
2023-04-26T19:20:01.014Z,99.60
2023-04-26T19:22:29.537Z,99.90
2023-04-26T19:24:57.131Z,99.90
2023-04-26T19:27:24.525Z,99.90
2023-04-26T19:29:51.902Z,99.90
2023-04-26T19:34:47.196Z,99.90
2023-04-26T19:37:14.495Z,99.90
2023-04-26T19:39:41.805Z,99.90
2023-04-26T19:42:09.293Z,99.90
2023-04-26T19:44:37.135Z,99.90
2023-04-26T19:47:04.747Z,99.90
2023-04-26T19:49:32.394Z,99.90
2023-04-26T19:52:01.002Z,99.90
2023-04-26T19:54:28.704Z,99.90
2023-04-26T19:56:56.538Z,99.90
2023-04-26T19:59:24.777Z,99.90
2023-04-26T20:01:53.870Z,99.90
2023-04-26T20:04:21.678Z,99.90
2023-04-26T20:06:49.176Z,99.90
2023-04-26T20:09:16.630Z,99.90
2023-04-26T20:11:44.205Z,99.90
2023-04-26T20:14:11.547Z,99.90
2023-04-26T20:16:38.911Z,99.90
2023-04-26T20:19:06.540Z,99.90
2023-04-26T20:21:34.037Z,99.90
2023-04-26T20:24:02.290Z,99.90
2023-04-26T20:26:30.026Z,99.90
2023-04-26T20:28:57.340Z,99.90
2023-04-26T20:31:25.180Z,99.90
2023-04-26T20:33:53.786Z,99.90
2023-04-26T20:36:21.470Z,99.90
2023-04-26T20:38:48.772Z,99.90
2023-04-26T20:41:16.360Z,99.90
2023-04-26T20:43:43.768Z,99.90
2023-04-26T20:46:11.479Z,99.90
2023-04-26T20:48:38.737Z,99.90
2023-04-26T20:51:06.004Z,99.90
2023-04-26T20:53:33.206Z,99.90
2023-04-26T20:56:00.421Z,99.90
2023-04-26T20:58:27.594Z,99.90
2023-04-26T21:00:55.634Z,99.90
2023-04-26T21:03:23.725Z,99.90
2023-04-26T21:05:51.248Z,99.90
2023-04-26T21:08:18.930Z,99.90
2023-04-26T21:10:46.360Z,99.90
2023-04-26T21:13:14.455Z,99.90
2023-04-26T21:15:42.200Z,99.90
2023-04-26T21:18:10.208Z,99.90
2023-04-26T21:20:37.720Z,99.90
2023-04-26T21:23:04.868Z,99.90
2023-04-26T21:25:32.587Z,99.90
2023-04-26T21:27:59.769Z,99.90
2023-04-26T21:30:26.958Z,99.90
2023-04-26T21:32:54.203Z,99.90
2023-04-26T21:35:21.618Z,99.90
2023-04-26T21:37:48.808Z,99.90
2023-04-26T21:40:16.447Z,99.90
2023-04-26T21:42:46.702Z,99.90
2023-04-26T21:45:21.608Z,99.90
2023-04-26T21:47:48.758Z,99.90
2023-04-26T21:50:16.163Z,99.90
2023-04-26T21:52:43.351Z,99.90
2023-04-26T21:55:10.903Z,99.90
2023-04-26T21:57:38.085Z,99.90
2023-04-26T22:00:08.499Z,99.90
2023-04-26T22:02:41.276Z,99.90
2023-04-26T22:05:09.468Z,99.90
2023-04-26T22:07:36.809Z,99.90
2023-04-26T22:10:04.212Z,99.90
2023-04-26T22:12:31.385Z,99.90
2023-04-26T22:14:58.616Z,99.90
2023-04-26T22:17:25.954Z,99.90
2023-04-26T22:19:55.344Z,99.90
2023-04-26T22:22:22.530Z,99.90
2023-04-26T22:24:51.115Z,99.90
2023-04-26T22:27:18.809Z,99.90
2023-04-26T22:29:45.966Z,99.90
2023-04-26T22:32:13.362Z,99.90
2023-04-26T22:34:43.531Z,99.90
2023-04-26T22:37:20.673Z,99.90
2023-04-26T22:39:49.274Z,99.90
2023-04-26T22:42:16.495Z,99.90
2023-04-26T22:44:43.713Z,99.90
2023-04-26T22:47:11.085Z,99.90
2023-04-26T22:49:38.465Z,99.90
2023-04-26T22:52:09.688Z,99.90
2023-04-26T22:54:41.539Z,99.90
2023-04-26T22:57:09.202Z,99.90
2023-04-26T22:59:36.532Z,99.90
2023-04-26T23:02:03.882Z,99.90
2023-04-26T23:04:31.348Z,99.90
2023-04-26T23:06:58.507Z,99.90
2023-04-26T23:09:26.309Z,99.90
2023-04-26T23:11:54.076Z,99.90
2023-04-26T23:14:21.434Z,99.90
2023-04-26T23:16:49.273Z,99.90
2023-04-26T23:19:17.167Z,99.90
2023-04-26T23:21:44.540Z,99.90
2023-04-26T23:24:11.680Z,99.90
2023-04-26T23:26:39.463Z,99.90
2023-04-26T23:29:06.705Z,99.90
2023-04-26T23:31:34.397Z,99.90
2023-04-26T23:34:01.584Z,99.90
2023-04-26T23:36:29.147Z,99.90
2023-04-26T23:38:56.292Z,99.90
2023-04-26T23:41:23.446Z,99.90
2023-04-26T23:43:50.656Z,99.90
2023-04-26T23:46:17.865Z,99.90
2023-04-26T23:48:45.072Z,99.90
2023-04-26T23:51:12.290Z,99.90
2023-04-26T23:53:39.629Z,99.90
2023-04-26T23:56:07.871Z,99.90
2023-04-26T23:58:35.025Z,99.90
